createdAt,value
2022-09-25T00:01:10.343Z,82.52
2022-09-25T00:03:37.195Z,82.38
2022-09-25T00:06:07.365Z,82.55
2022-09-25T00:08:35.094Z,82.24
2022-09-25T00:11:07.683Z,82.58
2022-09-25T00:13:35.187Z,82.60
2022-09-25T00:16:03.301Z,82.50
2022-09-25T00:18:48.727Z,82.66
2022-09-25T00:21:16.029Z,82.69
2022-09-25T00:23:47.120Z,82.42
2022-09-25T00:26:15.693Z,82.04
2022-09-25T00:28:43.455Z,82.43
2022-09-25T00:31:11.546Z,82.30
2022-09-25T00:33:38.687Z,82.08
2022-09-25T00:36:08.025Z,82.22
2022-09-25T00:38:36.830Z,81.95
2022-09-25T00:41:05.318Z,81.75
2022-09-25T00:43:37.844Z,81.83
2022-09-25T00:46:09.124Z,81.50
2022-09-25T00:48:36.850Z,81.31
2022-09-25T00:51:05.072Z,81.03
2022-09-25T00:53:35.864Z,81.21
2022-09-25T00:56:02.653Z,81.36
2022-09-25T00:58:31.473Z,81.52
2022-09-25T01:00:58.282Z,81.21
2022-09-25T01:03:26.336Z,81.56
2022-09-25T01:05:54.678Z,81.21
2022-09-25T01:08:23.916Z,81.27
2022-09-25T01:10:51.583Z,81.07
2022-09-25T01:13:20.425Z,80.83
2022-09-25T01:16:07.319Z,80.63
2022-09-25T01:18:45.928Z,80.73
2022-09-25T01:21:24.433Z,80.34
2022-09-25T01:24:19.237Z,80.14
2022-09-25T01:27:17.228Z,80.50
2022-09-25T01:30:05.994Z,80.39
2022-09-25T01:32:52.921Z,80.08
2022-09-25T01:35:29.034Z,80.40
2022-09-25T01:38:15.356Z,80.52
2022-09-25T01:41:09.599Z,80.67
2022-09-25T01:43:47.470Z,80.38
2022-09-25T01:46:35.182Z,80.56
2022-09-25T01:49:09.605Z,80.42
2022-09-25T01:51:39.562Z,80.20
2022-09-25T01:54:12.730Z,80.22
2022-09-25T01:56:48.342Z,80.10
2022-09-25T01:59:24.734Z,80.02
2022-09-25T02:01:51.920Z,80.03
2022-09-25T02:04:32.992Z,79.79
2022-09-25T02:07:03.762Z,79.41
2022-09-25T02:09:33.397Z,79.50
2022-09-25T02:12:05.581Z,79.26
2022-09-25T02:14:35.740Z,79.24
2022-09-25T02:17:05.727Z,79.13
2022-09-25T02:19:51.135Z,78.93
2022-09-25T02:22:22.527Z,78.79
2022-09-25T02:25:00.935Z,78.77
2022-09-25T02:27:28.792Z,78.19
2022-09-25T02:29:56.576Z,78.34
2022-09-25T02:32:26.825Z,78.28
2022-09-25T02:34:53.680Z,78.20
2022-09-25T02:37:20.444Z,78.10
2022-09-25T02:39:50.226Z,78.03
2022-09-25T02:42:26.629Z,77.78
2022-09-25T02:45:16.668Z,77.60
2022-09-25T02:48:03.563Z,77.61
2022-09-25T02:50:50.571Z,77.21
2022-09-25T02:53:35.997Z,77.53
2022-09-25T02:56:03.920Z,77.05
2022-09-25T02:58:37.293Z,76.91
2022-09-25T03:01:06.134Z,76.92
2022-09-25T03:03:34.234Z,76.73
2022-09-25T03:06:01.562Z,76.48
2022-09-25T03:08:41.785Z,76.63
2022-09-25T03:11:13.773Z,76.33
2022-09-25T03:13:41.194Z,76.40
2022-09-25T03:16:20.439Z,76.31
2022-09-25T03:18:48.065Z,76.08
2022-09-25T03:21:14.860Z,75.81
2022-09-25T03:23:41.598Z,75.88
2022-09-25T03:26:08.339Z,76.07
2022-09-25T03:28:35.384Z,76.19
2022-09-25T03:31:05.413Z,75.80
2022-09-25T03:33:39.001Z,75.51
2022-09-25T03:36:06.107Z,75.93
2022-09-25T03:38:33.413Z,75.74
2022-09-25T03:41:00.314Z,75.73
2022-09-25T03:43:27.113Z,75.43
2022-09-25T03:45:54.011Z,75.55
2022-09-25T03:48:21.868Z,75.58
2022-09-25T03:50:49.968Z,75.46
2022-09-25T03:53:18.356Z,75.41
2022-09-25T03:55:48.661Z,75.15
2022-09-25T03:58:16.780Z,75.21
2022-09-25T04:00:44.731Z,75.47
2022-09-25T04:03:12.289Z,75.78
2022-09-25T04:05:39.660Z,75.50
2022-09-25T04:08:06.525Z,75.55
2022-09-25T04:10:38.874Z,75.79
2022-09-25T04:13:06.769Z,75.76
2022-09-25T04:15:33.929Z,75.99
2022-09-25T04:18:05.187Z,75.78
2022-09-25T04:20:33.276Z,75.46
2022-09-25T04:23:00.062Z,75.31
2022-09-25T04:25:26.776Z,75.45
2022-09-25T04:27:55.490Z,75.24
2022-09-25T04:30:23.303Z,75.08
2022-09-25T04:33:09.249Z,74.81
2022-09-25T04:35:35.986Z,74.67
2022-09-25T04:38:03.069Z,74.76
2022-09-25T04:40:30.681Z,74.80
2022-09-25T04:43:02.484Z,74.84
2022-09-25T04:45:29.944Z,75.05
2022-09-25T04:47:59.330Z,74.77
2022-09-25T04:50:29.586Z,74.78
2022-09-25T04:53:02.265Z,74.92
2022-09-25T04:55:28.934Z,74.65
2022-09-25T04:58:00.619Z,74.98
2022-09-25T05:00:29.929Z,74.77
2022-09-25T05:02:56.805Z,75.10
2022-09-25T05:05:30.642Z,75.12
2022-09-25T05:07:59.266Z,74.85
2022-09-25T05:10:34.508Z,75.06
2022-09-25T05:17:18.570Z,74.63
2022-09-25T05:29:34.274Z,74.10
2022-09-25T05:35:43.330Z,74.29
2022-09-25T05:38:10.009Z,74.04
2022-09-25T05:40:39.807Z,74.35
2022-09-25T05:43:07.077Z,74.02
2022-09-25T05:45:39.393Z,73.99
2022-09-25T05:48:08.910Z,74.38
2022-09-25T05:50:35.966Z,74.45
2022-09-25T05:53:05.074Z,74.22
2022-09-25T05:55:32.005Z,74.59
2022-09-25T05:58:03.385Z,74.70
2022-09-25T06:00:33.266Z,74.75
2022-09-25T06:03:01.626Z,74.98
2022-09-25T06:05:28.994Z,74.83
2022-09-25T06:07:55.781Z,74.38
2022-09-25T06:10:23.001Z,74.50
2022-09-25T06:12:49.749Z,74.55
2022-09-25T06:15:16.444Z,74.40
2022-09-25T06:17:43.305Z,74.33
2022-09-25T06:20:15.911Z,74.37
2022-09-25T06:22:44.589Z,74.14
2022-09-25T06:25:11.377Z,73.97
2022-09-25T06:27:38.103Z,73.90
2022-09-25T06:30:05.967Z,73.97
2022-09-25T06:32:32.914Z,73.59
2022-09-25T06:34:59.571Z,73.59
2022-09-25T06:37:26.238Z,73.58
2022-09-25T06:39:52.953Z,73.71
2022-09-25T06:42:22.169Z,73.44
2022-09-25T06:44:48.942Z,73.52
2022-09-25T06:47:18.829Z,73.35
2022-09-25T06:49:47.124Z,73.26
2022-09-25T06:52:13.840Z,73.44
2022-09-25T06:54:44.360Z,73.42
2022-09-25T06:57:12.694Z,73.37
2022-09-25T06:59:40.058Z,73.20
2022-09-25T07:02:26.348Z,73.16
2022-09-25T07:05:03.946Z,72.85
2022-09-25T07:35:46.832Z,72.02
2022-09-25T07:39:18.340Z,72.03
2022-09-25T07:42:08.928Z,72.10
2022-09-25T07:48:32.869Z,71.38
2022-09-25T07:52:04.338Z,71.74
2022-09-25T07:54:46.871Z,71.52
2022-09-25T07:57:45.712Z,71.18
2022-09-25T08:00:40.816Z,71.21
2022-09-25T08:03:19.791Z,70.83
2022-09-25T08:05:58.174Z,70.01
2022-09-25T08:11:28.365Z,69.84
2022-09-25T08:14:10.329Z,69.44
2022-09-25T08:16:44.910Z,69.16
2022-09-25T08:29:31.589Z,68.05
2022-09-25T08:31:58.458Z,67.75
2022-09-25T08:34:40.513Z,67.53
2022-09-25T08:37:09.810Z,67.99
2022-09-25T08:39:36.591Z,67.85
2022-09-25T08:42:03.876Z,67.85
2022-09-25T08:44:33.144Z,68.01
2022-09-25T08:47:30.127Z,67.95
2022-09-25T08:50:46.792Z,67.58
2022-09-25T08:54:30.367Z,67.81
2022-09-25T09:08:29.554Z,67.45
2022-09-25T09:11:13.736Z,67.72
2022-09-25T09:17:20.175Z,67.78
2022-09-25T09:20:08.069Z,67.81
2022-09-25T09:26:43.774Z,68.22
2022-09-25T09:30:01.454Z,68.38
2022-09-25T09:53:09.344Z,67.81
2022-09-25T09:56:35.067Z,67.58
2022-09-25T10:06:59.341Z,67.92
2022-09-25T10:09:27.928Z,67.91
2022-09-25T10:12:08.373Z,67.85
2022-09-25T10:14:40.033Z,67.82
2022-09-25T10:17:12.272Z,67.08
2022-09-25T10:21:46.288Z,66.87
2022-09-25T10:29:26.053Z,66.15
2022-09-25T10:32:13.334Z,66.19
2022-09-25T10:34:41.588Z,65.63
2022-09-25T10:37:19.148Z,65.39
2022-09-25T10:40:30.352Z,64.96
2022-09-25T10:43:20.199Z,64.98
2022-09-25T10:49:53.043Z,65.08
2022-09-25T10:52:27.597Z,65.05
2022-09-25T10:55:25.635Z,64.68
2022-09-25T10:58:10.514Z,64.56
2022-09-25T11:00:51.906Z,64.82
2022-09-25T11:03:34.524Z,64.65
2022-09-25T11:06:05.491Z,64.13
2022-09-25T11:09:11.910Z,63.66
2022-09-25T11:11:57.141Z,63.17
2022-09-25T11:18:50.946Z,63.20
2022-09-25T11:21:37.624Z,63.73
2022-09-25T11:24:08.224Z,63.52
2022-09-25T11:26:38.937Z,62.96
2022-09-25T11:29:43.214Z,62.30
2022-09-25T11:32:24.752Z,62.03
2022-09-25T11:35:01.519Z,61.20
2022-09-25T11:37:43.813Z,61.32
2022-09-25T11:40:29.537Z,61.59
2022-09-25T11:43:06.686Z,61.71
2022-09-25T11:45:48.761Z,61.38
2022-09-25T11:48:27.526Z,61.35
2022-09-25T11:51:22.719Z,61.03
2022-09-25T11:54:33.132Z,60.93
2022-09-25T11:57:11.701Z,60.93
2022-09-25T11:59:58.054Z,60.21
2022-09-25T12:03:09.141Z,59.47
2022-09-25T12:05:54.246Z,58.58
2022-09-25T12:08:47.757Z,58.85
2022-09-25T12:11:45.820Z,58.36
2022-09-25T12:14:22.059Z,57.88
2022-09-25T12:17:14.717Z,56.88
2022-09-25T12:20:05.582Z,56.27
2022-09-25T12:22:51.853Z,56.18
2022-09-25T12:25:24.782Z,56.07
2022-09-25T12:27:58.454Z,55.98
2022-09-25T12:30:30.219Z,55.86
2022-09-25T12:33:12.889Z,55.56
2022-09-25T12:36:00.609Z,55.43
2022-09-25T12:38:38.883Z,56.25
2022-09-25T12:41:13.258Z,55.83
2022-09-25T12:43:52.578Z,55.13
2022-09-25T12:46:25.220Z,54.11
2022-09-25T12:48:58.671Z,53.78
2022-09-25T12:51:35.203Z,53.26
2022-09-25T12:54:07.165Z,52.42
2022-09-25T12:56:58.139Z,52.99
2022-09-25T12:59:39.443Z,53.00
2022-09-25T13:02:19.796Z,52.57
2022-09-25T13:05:01.736Z,52.66
2022-09-25T13:07:50.102Z,52.95
2022-09-25T13:10:22.098Z,52.47
2022-09-25T13:12:49.681Z,51.56
2022-09-25T13:15:33.330Z,50.46
2022-09-25T13:18:00.157Z,49.60
2022-09-25T13:20:26.860Z,48.77
2022-09-25T13:22:58.175Z,47.87
2022-09-25T13:25:25.549Z,47.28
2022-09-25T13:28:08.213Z,47.25
2022-09-25T13:30:35.080Z,48.29
2022-09-25T13:33:09.297Z,48.84
2022-09-25T13:35:36.117Z,49.23
2022-09-25T13:38:35.772Z,49.67
2022-09-25T13:41:12.913Z,49.98
2022-09-25T13:43:39.870Z,50.82
2022-09-25T13:46:23.575Z,50.37
2022-09-25T13:48:55.603Z,50.89
2022-09-25T13:51:22.417Z,50.94
2022-09-25T13:54:01.858Z,51.11
2022-09-25T13:56:40.868Z,51.12
2022-09-25T13:59:12.416Z,51.57
2022-09-25T14:01:43.450Z,52.03
2022-09-25T14:04:17.296Z,51.49
2022-09-25T14:06:46.424Z,51.52
2022-09-25T14:09:18.951Z,51.72
2022-09-25T14:11:52.211Z,51.87
2022-09-25T14:14:55.633Z,51.81
2022-09-25T14:17:24.547Z,52.17
2022-09-25T14:19:54.243Z,51.70
2022-09-25T14:22:44.677Z,51.45
2022-09-25T14:25:38.461Z,51.46
2022-09-25T14:28:18.941Z,51.83
2022-09-25T14:30:59.537Z,51.80
2022-09-25T14:33:46.412Z,52.27
2022-09-25T14:36:44.179Z,53.13
2022-09-25T14:39:28.985Z,54.01
2022-09-25T14:42:37.301Z,54.48
2022-09-25T14:45:25.887Z,55.57
2022-09-25T14:47:56.337Z,55.78
2022-09-25T14:50:26.616Z,55.83
2022-09-25T14:53:03.867Z,56.07
2022-09-25T14:55:36.006Z,56.79
2022-09-25T14:58:07.432Z,56.62
2022-09-25T15:00:35.794Z,56.94
2022-09-25T15:03:02.926Z,57.21
2022-09-25T15:05:33.270Z,57.41
2022-09-25T15:08:02.392Z,57.62
2022-09-25T15:10:38.008Z,57.89
2022-09-25T15:13:17.260Z,57.45
2022-09-25T15:16:15.031Z,57.70
2022-09-25T15:18:43.920Z,58.15
2022-09-25T15:21:22.148Z,57.91
2022-09-25T15:23:49.002Z,58.09
2022-09-25T15:26:18.565Z,57.90
2022-09-25T15:28:45.897Z,58.16
2022-09-25T15:31:13.145Z,57.71
2022-09-25T15:33:40.965Z,58.02
2022-09-25T15:36:16.011Z,57.80
2022-09-25T15:38:45.688Z,56.99
2022-09-25T15:41:17.557Z,56.52
2022-09-25T15:43:44.396Z,55.73
2022-09-25T15:46:11.368Z,55.73
2022-09-25T15:48:57.864Z,55.58
2022-09-25T15:51:29.511Z,56.17
2022-09-25T15:54:26.077Z,56.59
2022-09-25T15:56:55.561Z,56.63
2022-09-25T15:59:33.770Z,57.47
2022-09-25T16:02:29.243Z,58.35
2022-09-25T16:04:56.877Z,59.12
2022-09-25T16:07:36.512Z,59.70
2022-09-25T16:10:09.452Z,59.70
2022-09-25T16:12:50.154Z,60.02
2022-09-25T16:15:46.049Z,60.58
2022-09-25T16:18:42.996Z,60.42
2022-09-25T16:24:58.529Z,61.59
2022-09-25T16:27:34.189Z,62.36
2022-09-25T16:30:04.329Z,62.22
2022-09-25T16:32:32.160Z,62.73
2022-09-25T16:35:01.304Z,63.34
2022-09-25T16:37:33.811Z,63.46
2022-09-25T16:40:08.619Z,64.16
2022-09-25T16:42:42.460Z,64.49
2022-09-25T16:45:30.013Z,64.73
2022-09-25T16:51:58.249Z,65.41
2022-09-25T16:54:31.936Z,65.55
2022-09-25T16:56:59.591Z,66.20
2022-09-25T16:59:28.533Z,66.39
2022-09-25T17:01:57.906Z,66.30
2022-09-25T17:04:54.197Z,66.56
2022-09-25T17:07:21.254Z,66.62
2022-09-25T17:09:48.285Z,67.05
2022-09-25T17:12:20.566Z,66.99
2022-09-25T17:14:50.729Z,66.89
2022-09-25T17:17:20.095Z,67.32
2022-09-25T17:19:52.958Z,67.48
2022-09-25T17:22:20.015Z,67.90
2022-09-25T17:24:46.829Z,67.70
2022-09-25T17:27:16.826Z,68.10
2022-09-25T17:29:48.362Z,68.53
2022-09-25T17:32:19.333Z,68.99
2022-09-25T17:34:46.684Z,69.32
2022-09-25T17:37:14.035Z,69.62
2022-09-25T17:39:40.784Z,69.96
2022-09-25T17:42:15.156Z,69.99
2022-09-25T17:44:49.254Z,70.20
2022-09-25T17:47:21.755Z,70.46
2022-09-25T17:49:49.874Z,70.38
2022-09-25T17:52:18.374Z,70.43
2022-09-25T17:54:50.681Z,70.87
2022-09-25T17:57:17.491Z,71.05
2022-09-25T17:59:44.477Z,70.86
2022-09-25T18:02:15.455Z,71.24
2022-09-25T18:04:44.849Z,71.31
2022-09-25T18:07:11.603Z,71.70
2022-09-25T18:09:40.608Z,71.82
2022-09-25T18:12:08.724Z,71.99
2022-09-25T18:14:49.877Z,72.07
2022-09-25T18:17:19.485Z,71.98
2022-09-25T18:20:07.380Z,71.89
2022-09-25T18:22:40.049Z,71.81
2022-09-25T18:25:34.867Z,71.96
2022-09-25T18:28:37.387Z,72.10
2022-09-25T18:31:14.462Z,72.67
2022-09-25T18:33:47.166Z,72.56
2022-09-25T18:36:14.822Z,72.39
2022-09-25T18:38:42.433Z,72.61
2022-09-25T18:41:15.130Z,72.55
2022-09-25T18:43:45.011Z,73.12
2022-09-25T18:46:12.025Z,72.88
2022-09-25T18:48:50.324Z,72.69
2022-09-25T18:55:43.776Z,72.67
2022-09-25T18:59:27.536Z,72.63
2022-09-25T19:07:59.060Z,73.71
2022-09-25T19:10:39.065Z,74.25
2022-09-25T19:14:12.495Z,74.42
2022-09-25T19:17:55.263Z,74.71
2022-09-25T20:25:39.921Z,78.61
2022-09-25T20:28:54.754Z,79.08
2022-09-25T20:32:01.168Z,79.23
2022-09-25T21:00:01.563Z,80.85
2022-09-25T21:03:06.278Z,80.90
2022-09-25T21:05:58.229Z,81.23
2022-09-25T21:08:37.302Z,81.15
2022-09-25T21:11:35.237Z,81.44
2022-09-25T21:14:55.117Z,81.47
2022-09-25T21:18:12.699Z,81.69
2022-09-25T21:21:57.764Z,82.12
2022-09-25T21:25:10.037Z,81.90
2022-09-25T21:28:27.584Z,82.24
2022-09-25T21:36:00.553Z,82.29
2022-09-25T21:39:22.121Z,82.29
2022-09-25T21:46:06.083Z,82.62
2022-09-25T21:49:25.620Z,83.06
2022-09-25T21:52:54.185Z,83.00
2022-09-25T21:55:51.764Z,82.92
2022-09-25T22:01:46.638Z,83.46
2022-09-25T22:04:54.056Z,83.24
2022-09-25T22:07:28.046Z,83.53
2022-09-25T22:10:17.719Z,83.72
2022-09-25T22:13:34.353Z,83.65
2022-09-25T22:20:48.533Z,83.61
2022-09-25T22:23:33.414Z,84.19
2022-09-25T22:26:48.842Z,84.38
2022-09-25T22:30:08.984Z,84.17
2022-09-25T22:33:53.418Z,84.15
2022-09-25T22:51:05.418Z,83.29
2022-09-25T23:01:44.694Z,83.36
2022-09-25T23:16:09.338Z,83.23
2022-09-25T23:19:58.855Z,83.51
2022-09-25T23:23:34.503Z,83.30
2022-09-25T23:30:07.754Z,83.77
2022-09-25T23:33:03.803Z,83.55
2022-09-25T23:36:37.638Z,84.05
2022-09-25T23:39:45.512Z,83.73
2022-09-25T23:42:31.974Z,84.00
2022-09-25T23:56:04.256Z,83.93
2022-09-25T23:59:14.075Z,84.00
